Usace Nysb-3 — AESN — position and weather

sailwx.info

Track history (hours):
 
Tides and Currents Weather Stations Pressure Air Temp Water Temp Dewpoint Dewpoint Depression Visibility Wind Speed Wind Dir Waves Ship Positions

Usace Nysb-3

Last reported at 2018-Feb-15 20:26 UTC. Time now 2018-Feb-18 20:37 UTC.
Position N 40°41' W 074°04'.

Length 8 m.

Type: Dredging. MMSI: 368926078.

Date/timePositionNaut miles runAvg speedWind from/ knotsBaromVisibWave heightAir tempDewpointWater temp
2018-Feb-15 20:26N 40°41' W 074°04'2 0.4
2018-Feb-15 16:15N 40°40' W 074°03'2 1.9
2018-Feb-15 15:23N 40°41' W 074°04'0 0.0
2018-Feb-14 20:21N 40°41' W 074°04'6 1.4
2018-Feb-14 15:49N 40°38' W 074°12'612.4
2018-Feb-14 15:18N 40°40' W 074°04'1 1.8
2018-Feb-14 14:59N 40°40' W 074°03'2 0.1
2018-Feb-13 20:48N 40°41' W 074°04'2 5.9
2018-Feb-13 20:30N 40°39' W 074°04'4 1.1
2018-Feb-13 16:34N 40°39' W 074°10'121.4
2018-Feb-13 16:30N 40°39' W 074°09'611.7
2018-Feb-13 15:58N 40°43' W 074°02'0 0.0
2018-Feb-13 15:26N 40°43' W 074°02'3 5.5
2018-Feb-13 14:56N 40°40' W 074°03'2 0.1
2018-Feb-12 20:52N 40°41' W 074°04'0 0.6
2018-Feb-12 20:29N 40°41' W 074°04'1 0.5
2018-Feb-12 17:17N 40°39' W 074°04'3 6.1
2018-Feb-12 16:52N 40°40' W 074°01'0 0.1
2018-Feb-12 16:30N 40°40' W 074°01'1 2.8
2018-Feb-12 15:59N 40°40' W 074°03'  
2018-Feb-06 20:33N 40°41' W 074°04'0 0.6
2018-Feb-06 20:29N 40°41' W 074°04'3 4.3
2018-Feb-06 19:50N 40°39' W 074°03'1 1.7
2018-Feb-06 19:28N 40°39' W 074°03'0 0.1
2018-Feb-06 18:58N 40°39' W 074°03'2 2.9
2018-Feb-06 18:17N 40°40' W 074°01'0 0.0
2018-Feb-06 17:51N 40°40' W 074°01'2 5.0
2018-Feb-06 17:30N 40°39' W 074°02'0 0.3
2018-Feb-06 17:00N 40°39' W 074°02'1 1.1
2018-Feb-06 16:27N 40°39' W 074°03'0 0.3
2018-Feb-06 16:00N 40°39' W 074°03'0 0.8
2018-Feb-06 15:29N 40°39' W 074°03'1 1.2
2018-Feb-06 14:56N 40°40' W 074°03'  
Track history (hours):
 
Tides and Currents Weather Stations Pressure Air Temp Water Temp Dewpoint Dewpoint Depression Visibility Wind Speed Wind Dir Waves Ship Positions

Usace Nysb-3

Last reported at 2018-Feb-15 20:26 UTC. Time now 2018-Feb-18 20:37 UTC.
Position N 40°41' W 074°04'.

Length 8 m.

Type: Dredging. MMSI: 368926078.

Date/timePositionNaut miles runAvg speedWind from/ knotsBaromVisibWave heightAir tempDewpointWater temp
2018-Feb-15 20:26N 40°41' W 074°04'2 0.4
2018-Feb-15 16:15N 40°40' W 074°03'2 1.9
2018-Feb-15 15:23N 40°41' W 074°04'0 0.0
2018-Feb-14 20:21N 40°41' W 074°04'6 1.4
2018-Feb-14 15:49N 40°38' W 074°12'612.4
2018-Feb-14 15:18N 40°40' W 074°04'1 1.8
2018-Feb-14 14:59N 40°40' W 074°03'2 0.1
2018-Feb-13 20:48N 40°41' W 074°04'2 5.9
2018-Feb-13 20:30N 40°39' W 074°04'4 1.1
2018-Feb-13 16:34N 40°39' W 074°10'121.4
2018-Feb-13 16:30N 40°39' W 074°09'611.7
2018-Feb-13 15:58N 40°43' W 074°02'0 0.0
2018-Feb-13 15:26N 40°43' W 074°02'3 5.5
2018-Feb-13 14:56N 40°40' W 074°03'2 0.1
2018-Feb-12 20:52N 40°41' W 074°04'0 0.6
2018-Feb-12 20:29N 40°41' W 074°04'1 0.5
2018-Feb-12 17:17N 40°39' W 074°04'3 6.1
2018-Feb-12 16:52N 40°40' W 074°01'0 0.1
2018-Feb-12 16:30N 40°40' W 074°01'1 2.8
2018-Feb-12 15:59N 40°40' W 074°03'  
2018-Feb-06 20:33N 40°41' W 074°04'0 0.6
2018-Feb-06 20:29N 40°41' W 074°04'3 4.3
2018-Feb-06 19:50N 40°39' W 074°03'1 1.7
2018-Feb-06 19:28N 40°39' W 074°03'0 0.1
2018-Feb-06 18:58N 40°39' W 074°03'2 2.9
2018-Feb-06 18:17N 40°40' W 074°01'0 0.0
2018-Feb-06 17:51N 40°40' W 074°01'2 5.0
2018-Feb-06 17:30N 40°39' W 074°02'0 0.3
2018-Feb-06 17:00N 40°39' W 074°02'1 1.1
2018-Feb-06 16:27N 40°39' W 074°03'0 0.3
2018-Feb-06 16:00N 40°39' W 074°03'0 0.8
2018-Feb-06 15:29N 40°39' W 074°03'1 1.2
2018-Feb-06 14:56N 40°40' W 074°03'  

Dump ship's entire track history